createdAt,value
2018-10-02T00:01:19.537Z,77.90
2018-10-02T00:03:47.887Z,76.99
2018-10-02T00:06:16.108Z,74.52
2018-10-02T00:08:44.350Z,72.73
2018-10-02T00:11:18.173Z,72.88
2018-10-02T00:13:51.693Z,71.69
2018-10-02T00:16:19.900Z,71.80
2018-10-02T00:18:48.165Z,71.28
2018-10-02T00:21:16.498Z,71.21
2018-10-02T00:23:44.883Z,72.61
2018-10-02T00:26:13.116Z,72.20
2018-10-02T00:28:42.097Z,73.57
2018-10-02T00:31:10.956Z,71.84
2018-10-02T00:33:39.259Z,72.23
2018-10-02T00:36:07.711Z,71.11
2018-10-02T00:38:35.963Z,72.15
2018-10-02T00:41:04.248Z,72.43
2018-10-02T00:43:32.487Z,72.30
2018-10-02T00:46:00.763Z,73.15
2018-10-02T00:48:29.097Z,73.83
2018-10-02T00:50:57.306Z,74.67
2018-10-02T00:53:25.591Z,74.40
2018-10-02T00:55:53.966Z,74.18
2018-10-02T00:58:22.190Z,73.91
2018-10-02T01:00:50.551Z,74.32
2018-10-02T01:03:18.906Z,74.85
2018-10-02T01:05:47.873Z,74.16
2018-10-02T01:08:16.248Z,74.92
2018-10-02T01:10:45.602Z,75.69
2018-10-02T01:13:13.843Z,75.17
2018-10-02T01:15:42.783Z,75.38
2018-10-02T01:18:11.144Z,76.11
2018-10-02T01:20:39.334Z,76.27
2018-10-02T01:23:07.615Z,75.76
2018-10-02T01:25:35.904Z,76.51
2018-10-02T01:28:04.152Z,78.14
2018-10-02T01:30:32.424Z,77.79
2018-10-02T01:33:00.810Z,79.01
2018-10-02T01:35:29.097Z,76.62
2018-10-02T01:37:57.470Z,76.15
2018-10-02T01:40:25.756Z,75.97
2018-10-02T01:42:53.995Z,76.95
2018-10-02T01:45:22.278Z,75.46
2018-10-02T01:47:50.484Z,76.89
2018-10-02T01:50:18.798Z,76.52
2018-10-02T01:52:47.281Z,77.10
2018-10-02T01:55:15.714Z,75.50
2018-10-02T01:57:44.225Z,76.86
2018-10-02T02:00:12.536Z,77.02
2018-10-02T02:02:40.813Z,77.04
2018-10-02T02:05:09.253Z,78.50
2018-10-02T02:07:37.730Z,80.61
2018-10-02T02:10:06.544Z,78.75
2018-10-02T02:12:35.183Z,77.51
2018-10-02T02:15:04.020Z,78.13
2018-10-02T02:17:32.366Z,79.19
2018-10-02T02:20:00.709Z,79.75
2018-10-02T02:22:29.104Z,79.77
2018-10-02T02:24:57.384Z,80.24
2018-10-02T02:27:25.675Z,79.49
2018-10-02T02:29:53.986Z,79.67
2018-10-02T02:32:22.310Z,80.47
2018-10-02T02:34:50.602Z,80.26
2018-10-02T02:37:18.868Z,81.71
2018-10-02T02:39:47.217Z,81.20
2018-10-02T02:42:15.511Z,82.22
2018-10-02T02:44:43.807Z,83.72
2018-10-02T02:47:17.522Z,83.20
2018-10-02T02:49:51.249Z,83.36
2018-10-02T02:52:21.648Z,82.72
2018-10-02T02:54:49.895Z,82.71
2018-10-02T02:57:18.159Z,82.59
2018-10-02T02:59:46.466Z,86.01
2018-10-02T03:02:14.799Z,84.13
2018-10-02T03:04:43.107Z,83.91
2018-10-02T03:07:11.733Z,84.34
2018-10-02T03:09:40.091Z,84.63
2018-10-02T03:12:08.633Z,85.01
2018-10-02T03:14:36.933Z,84.95
2018-10-02T03:17:05.438Z,86.67
2018-10-02T03:19:33.733Z,85.62
2018-10-02T03:22:01.991Z,86.14
2018-10-02T03:24:30.242Z,86.70
2018-10-02T03:26:58.543Z,87.68
2018-10-02T03:29:26.826Z,88.99
2018-10-02T03:31:55.262Z,87.90
2018-10-02T03:34:23.664Z,88.64
2018-10-02T03:36:51.978Z,90.04
2018-10-02T03:39:20.541Z,88.80
2018-10-02T03:41:48.838Z,89.24
2018-10-02T03:44:17.509Z,88.57
2018-10-02T03:46:45.765Z,90.69
2018-10-02T03:49:14.965Z,89.55
2018-10-02T03:51:43.215Z,90.02
2018-10-02T03:54:11.538Z,89.21
2018-10-02T03:56:40.009Z,91.48
2018-10-02T03:59:08.605Z,91.30
2018-10-02T04:01:36.949Z,91.02
2018-10-02T04:04:05.451Z,90.67
2018-10-02T04:06:33.873Z,94.29
2018-10-02T04:09:02.161Z,92.46
2018-10-02T04:11:31.165Z,92.58
2018-10-02T04:13:59.502Z,93.51
2018-10-02T04:16:27.887Z,95.11
2018-10-02T04:18:56.381Z,95.63
2018-10-02T04:21:29.277Z,97.51
2018-10-02T04:23:57.751Z,96.09
2018-10-02T04:26:26.267Z,95.77
2018-10-02T04:28:56.081Z,95.33
2018-10-02T04:31:24.393Z,95.64
2018-10-02T04:33:52.924Z,95.60
2018-10-02T04:36:21.161Z,95.86
2018-10-02T04:38:49.391Z,95.87
2018-10-02T04:41:17.818Z,95.22
2018-10-02T04:43:46.264Z,96.31
2018-10-02T04:46:14.570Z,94.78
2018-10-02T04:48:42.889Z,94.20
2018-10-02T04:51:13.203Z,93.67
2018-10-02T04:53:41.551Z,96.08
2018-10-02T04:56:11.749Z,93.88
2018-10-02T04:58:40.035Z,93.67
2018-10-02T05:01:08.287Z,93.81
2018-10-02T05:03:36.538Z,92.44
2018-10-02T05:06:04.970Z,92.58
2018-10-02T05:08:33.494Z,90.70
2018-10-02T05:11:01.780Z,93.96
2018-10-02T05:13:30.267Z,98.22
2018-10-02T05:15:58.880Z,94.07
2018-10-02T05:18:27.162Z,92.14
2018-10-02T05:20:55.551Z,93.61
2018-10-02T05:23:23.918Z,93.71
2018-10-02T05:25:52.218Z,95.17
2018-10-02T05:28:20.503Z,94.50
2018-10-02T05:30:48.924Z,96.34
2018-10-02T05:33:17.200Z,94.90
2018-10-02T05:35:45.511Z,95.91
2018-10-02T05:38:13.860Z,100.00
2018-10-02T05:40:42.187Z,100.00
2018-10-02T05:43:10.705Z,90.88
2018-10-02T05:45:39.031Z,76.78
2018-10-02T05:48:07.402Z,67.92
2018-10-02T05:50:35.800Z,63.44
2018-10-02T05:53:04.011Z,60.42
2018-10-02T05:55:32.498Z,58.70
2018-10-02T05:58:00.822Z,57.13
2018-10-02T06:00:29.378Z,57.64
2018-10-02T06:02:57.977Z,51.52
2018-10-02T06:05:26.259Z,56.82
2018-10-02T06:07:54.833Z,60.61
2018-10-02T06:10:23.149Z,63.45
2018-10-02T06:12:51.472Z,66.25
2018-10-02T06:15:19.942Z,72.21
2018-10-02T06:17:48.226Z,69.82
2018-10-02T06:20:17.047Z,71.72
2018-10-02T06:22:45.468Z,72.01
2018-10-02T06:25:13.766Z,72.46
2018-10-02T06:27:42.254Z,73.03
2018-10-02T06:30:10.694Z,73.98
2018-10-02T06:32:39.213Z,75.51
2018-10-02T06:35:07.660Z,75.90
2018-10-02T06:37:36.242Z,76.33
2018-10-02T06:40:04.803Z,77.33
2018-10-02T06:42:33.271Z,77.34
2018-10-02T06:45:01.677Z,78.43
2018-10-02T06:47:30.639Z,78.87
2018-10-02T06:49:58.907Z,79.19
2018-10-02T06:52:27.571Z,81.84
2018-10-02T06:54:55.749Z,78.29
2018-10-02T06:57:24.141Z,82.37
2018-10-02T06:59:52.411Z,78.25
2018-10-02T07:02:20.640Z,80.07
2018-10-02T07:04:49.297Z,71.60
2018-10-02T07:07:18.813Z,71.46
2018-10-02T07:09:47.159Z,70.22
2018-10-02T07:12:15.480Z,67.40
2018-10-02T07:14:44.068Z,64.60
2018-10-02T07:17:12.583Z,64.65
2018-10-02T07:19:40.958Z,64.44
2018-10-02T07:22:09.404Z,65.95
2018-10-02T07:24:37.689Z,64.61
2018-10-02T07:27:06.519Z,66.14
2018-10-02T07:29:34.684Z,64.79
2018-10-02T07:32:02.979Z,66.54
2018-10-02T07:34:31.344Z,65.57
2018-10-02T07:36:59.815Z,65.07
2018-10-02T07:39:28.117Z,66.06
2018-10-02T07:41:56.516Z,64.64
2018-10-02T07:44:24.837Z,63.19
2018-10-02T07:46:53.420Z,62.63
2018-10-02T07:49:21.755Z,63.85
2018-10-02T07:51:50.152Z,63.37
2018-10-02T07:54:18.605Z,62.28
2018-10-02T07:56:47.728Z,63.13
2018-10-02T07:59:16.244Z,62.42
2018-10-02T08:01:44.528Z,62.41
2018-10-02T08:04:12.857Z,61.18
2018-10-02T08:06:41.204Z,62.79
2018-10-02T08:09:11.670Z,66.44
2018-10-02T08:11:40.074Z,58.91
2018-10-02T08:14:09.083Z,59.22
2018-10-02T08:16:37.827Z,58.10
2018-10-02T08:19:06.124Z,67.97
2018-10-02T08:21:34.422Z,55.24
2018-10-02T08:24:02.838Z,54.01
2018-10-02T08:26:31.154Z,57.66
2018-10-02T08:28:59.499Z,64.05
2018-10-02T08:31:28.402Z,54.67
2018-10-02T08:33:56.689Z,55.33
2018-10-02T08:36:25.047Z,53.16
2018-10-02T08:38:53.300Z,57.60
2018-10-02T08:41:21.766Z,54.36
2018-10-02T08:43:52.123Z,56.00
2018-10-02T08:46:20.358Z,57.62
2018-10-02T08:48:49.700Z,63.95
2018-10-02T08:51:18.203Z,57.39
2018-10-02T08:53:46.569Z,54.78
2018-10-02T08:56:14.847Z,51.98
2018-10-02T08:58:43.188Z,54.68
2018-10-02T09:01:11.564Z,52.89
2018-10-02T09:03:39.833Z,54.28
2018-10-02T09:06:08.170Z,54.93
2018-10-02T09:08:36.843Z,53.09
2018-10-02T09:11:05.446Z,51.97
2018-10-02T09:13:33.807Z,53.83
2018-10-02T09:16:02.365Z,49.65
2018-10-02T09:18:30.748Z,51.39
2018-10-02T09:20:59.092Z,48.91
2018-10-02T09:23:27.404Z,47.98
2018-10-02T09:25:55.788Z,47.93
2018-10-02T09:28:24.090Z,50.05
2018-10-02T09:30:57.790Z,49.57
2018-10-02T09:33:31.209Z,55.03
2018-10-02T09:36:04.909Z,48.63
2018-10-02T09:38:38.499Z,53.30
2018-10-02T09:41:12.252Z,45.47
2018-10-02T09:43:44.635Z,50.21
2018-10-02T09:46:12.887Z,46.58
2018-10-02T09:48:41.293Z,48.91
2018-10-02T09:51:09.590Z,49.00
2018-10-02T09:53:37.881Z,55.23
2018-10-02T09:56:06.548Z,46.49
2018-10-02T09:58:35.007Z,47.42
2018-10-02T10:01:05.669Z,46.66
2018-10-02T10:03:34.264Z,50.07
2018-10-02T10:06:02.662Z,48.12
2018-10-02T10:08:31.144Z,50.93
2018-10-02T10:10:59.594Z,47.28
2018-10-02T10:13:28.031Z,47.31
2018-10-02T10:16:00.372Z,47.76
2018-10-02T10:18:28.856Z,46.61
2018-10-02T10:20:57.092Z,46.78
2018-10-02T10:23:26.124Z,46.88
2018-10-02T10:25:54.377Z,46.78
2018-10-02T10:28:22.839Z,46.60
2018-10-02T10:30:51.103Z,47.01
2018-10-02T10:33:20.151Z,47.06
2018-10-02T10:35:48.578Z,47.18
2018-10-02T10:38:17.014Z,47.52
2018-10-02T10:40:45.390Z,47.21
2018-10-02T10:43:14.154Z,47.16
2018-10-02T10:45:42.840Z,47.74
2018-10-02T10:48:11.820Z,47.39
2018-10-02T10:50:40.136Z,47.28
2018-10-02T10:53:08.607Z,47.59
2018-10-02T10:55:38.292Z,47.93
2018-10-02T10:58:06.582Z,47.17
2018-10-02T11:00:37.447Z,48.15
2018-10-02T11:03:06.945Z,48.05
2018-10-02T11:05:35.527Z,50.21
2018-10-02T11:08:04.141Z,50.67
2018-10-02T11:10:32.679Z,51.49
2018-10-02T11:13:02.683Z,52.32
2018-10-02T11:15:32.453Z,52.94
2018-10-02T11:18:01.530Z,53.23
2018-10-02T11:20:32.166Z,52.09
2018-10-02T11:23:03.351Z,60.99
2018-10-02T11:25:31.893Z,48.47
2018-10-02T11:28:00.272Z,48.99
2018-10-02T11:30:28.671Z,48.00
2018-10-02T11:32:57.093Z,48.67
2018-10-02T11:35:25.516Z,49.28
2018-10-02T11:37:53.976Z,48.17
2018-10-02T11:40:22.411Z,48.11
2018-10-02T11:42:50.743Z,47.22
2018-10-02T11:45:19.048Z,47.92
2018-10-02T11:47:47.457Z,47.91
2018-10-02T11:50:15.791Z,48.25
2018-10-02T11:52:44.041Z,48.51
2018-10-02T11:55:12.703Z,47.08
2018-10-02T11:57:41.008Z,46.42
2018-10-02T12:00:10.356Z,46.56
2018-10-02T12:02:38.802Z,46.17
2018-10-02T12:05:07.265Z,46.41
2018-10-02T12:07:35.974Z,46.39
2018-10-02T12:10:04.633Z,46.17
2018-10-02T12:12:33.032Z,46.69
2018-10-02T12:15:01.576Z,46.31
2018-10-02T12:17:29.935Z,46.50
2018-10-02T12:19:58.494Z,46.11
2018-10-02T12:22:26.744Z,44.98
2018-10-02T12:24:55.016Z,44.56
2018-10-02T12:27:23.544Z,44.97
2018-10-02T12:29:51.840Z,44.42
2018-10-02T12:32:20.139Z,44.37
2018-10-02T12:34:48.502Z,43.59
2018-10-02T12:37:16.796Z,42.87
2018-10-02T12:39:45.132Z,43.05
2018-10-02T12:42:13.491Z,44.14
2018-10-02T12:44:41.953Z,44.68
2018-10-02T12:47:10.232Z,45.60
2018-10-02T12:49:38.566Z,45.48
2018-10-02T12:52:06.991Z,45.29
2018-10-02T12:54:35.316Z,45.33
2018-10-02T12:58:32.915Z,45.88
2018-10-02T13:01:01.295Z,45.48
2018-10-02T13:03:29.912Z,45.10
2018-10-02T13:05:58.225Z,45.19
2018-10-02T13:08:27.092Z,44.99
2018-10-02T13:10:55.375Z,45.07
2018-10-02T13:13:23.809Z,45.41
2018-10-02T13:15:52.115Z,45.66
2018-10-02T13:18:20.407Z,45.83
2018-10-02T13:20:48.722Z,45.94
2018-10-02T13:23:17.899Z,46.12
2018-10-02T13:25:46.286Z,46.05
2018-10-02T13:28:14.613Z,46.10
2018-10-02T13:30:43.100Z,46.41
2018-10-02T13:33:11.492Z,46.74
2018-10-02T13:35:39.798Z,46.90
2018-10-02T13:38:08.221Z,46.70
2018-10-02T13:40:36.533Z,47.11
2018-10-02T13:43:04.996Z,46.97
2018-10-02T13:45:33.381Z,47.10
2018-10-02T13:48:01.855Z,47.15
2018-10-02T13:50:30.322Z,47.36
2018-10-02T13:52:58.670Z,47.47
2018-10-02T13:55:27.226Z,46.98
2018-10-02T13:57:55.630Z,48.36
2018-10-02T14:00:24.033Z,49.20
2018-10-02T14:02:52.461Z,49.54
2018-10-02T14:05:20.736Z,49.33
2018-10-02T14:07:49.328Z,49.27
2018-10-02T14:10:19.397Z,50.08
2018-10-02T14:12:47.723Z,52.84
2018-10-02T14:15:16.316Z,52.48
2018-10-02T14:17:44.703Z,53.24
2018-10-02T14:20:13.178Z,54.00
2018-10-02T14:22:41.497Z,54.42
2018-10-02T14:25:09.998Z,55.36
2018-10-02T14:27:38.329Z,55.46
2018-10-02T14:30:06.912Z,55.70
2018-10-02T14:32:35.695Z,57.19
2018-10-02T14:35:04.140Z,58.57
2018-10-02T14:37:32.746Z,58.69
2018-10-02T14:40:01.131Z,59.14
2018-10-02T14:42:29.425Z,58.83
2018-10-02T14:44:57.837Z,59.33
2018-10-02T14:47:26.443Z,59.82
2018-10-02T14:49:54.855Z,59.61
2018-10-02T14:52:23.345Z,60.12
2018-10-02T14:54:51.807Z,60.71
2018-10-02T14:57:20.263Z,60.01
2018-10-02T14:59:48.613Z,60.61
2018-10-02T15:02:16.945Z,61.41
2018-10-02T15:04:45.475Z,61.24
2018-10-02T15:07:13.905Z,61.51
2018-10-02T15:09:42.318Z,61.17
2018-10-02T15:12:10.791Z,61.21
2018-10-02T15:14:39.105Z,61.70
2018-10-02T15:17:07.598Z,61.56
2018-10-02T15:19:35.998Z,61.22
2018-10-02T15:22:04.436Z,61.01
2018-10-02T15:24:32.745Z,61.70
2018-10-02T15:27:01.103Z,61.93
2018-10-02T15:29:29.718Z,61.13
2018-10-02T15:31:58.195Z,61.73
2018-10-02T15:34:26.638Z,61.15
2018-10-02T15:36:55.062Z,61.27
2018-10-02T15:39:23.458Z,60.99
2018-10-02T15:41:51.737Z,60.96
2018-10-02T15:44:20.031Z,60.84
2018-10-02T15:46:48.525Z,60.50
2018-10-02T15:49:19.726Z,61.35
2018-10-02T15:51:49.145Z,60.74
2018-10-02T15:54:18.798Z,60.34
2018-10-02T15:56:47.278Z,60.64
2018-10-02T15:59:15.861Z,59.96
2018-10-02T16:01:44.997Z,60.56
2018-10-02T16:04:13.496Z,59.30
2018-10-02T16:06:42.540Z,59.80
2018-10-02T16:09:11.024Z,59.64
2018-10-02T16:11:40.830Z,59.10
2018-10-02T16:14:09.232Z,59.04
2018-10-02T16:16:38.141Z,59.35
2018-10-02T16:19:07.208Z,59.03
2018-10-02T16:21:37.851Z,58.68
2018-10-02T16:24:06.233Z,58.79
2018-10-02T16:26:34.584Z,57.82
2018-10-02T16:29:02.891Z,57.84
2018-10-02T16:31:31.154Z,57.40
2018-10-02T16:33:59.414Z,58.01
2018-10-02T16:36:27.928Z,58.20
2018-10-02T16:38:56.552Z,57.87
2018-10-02T16:41:24.872Z,57.76
2018-10-02T16:43:53.348Z,57.26
2018-10-02T16:46:21.647Z,58.09
2018-10-02T16:48:50.536Z,58.19
2018-10-02T16:51:18.849Z,58.25
2018-10-02T16:53:47.672Z,57.45
2018-10-02T16:56:16.816Z,57.53
2018-10-02T16:58:45.283Z,58.10
2018-10-02T17:01:13.536Z,58.31
2018-10-02T17:03:41.803Z,57.67
2018-10-02T17:06:10.419Z,57.72
2018-10-02T17:08:38.977Z,58.01
2018-10-02T17:11:07.459Z,57.76
2018-10-02T17:13:35.819Z,58.07
2018-10-02T17:16:04.248Z,57.22
2018-10-02T17:18:32.772Z,57.54
2018-10-02T17:21:01.410Z,57.34
2018-10-02T17:23:29.821Z,57.34
2018-10-02T17:25:58.217Z,57.82
2018-10-02T17:28:26.716Z,57.46
2018-10-02T17:30:55.101Z,57.92
2018-10-02T17:33:23.712Z,58.14
2018-10-02T17:35:52.107Z,58.01
2018-10-02T17:38:21.099Z,58.64
2018-10-02T17:40:49.525Z,58.52
2018-10-02T17:43:18.099Z,58.35
2018-10-02T17:45:46.491Z,58.75
2018-10-02T17:48:14.812Z,58.84
2018-10-02T17:50:43.461Z,58.54
2018-10-02T17:53:11.899Z,58.78
2018-10-02T17:55:40.382Z,58.80
2018-10-02T17:58:09.114Z,59.54
2018-10-02T18:00:37.455Z,59.84
2018-10-02T18:03:05.900Z,59.68
2018-10-02T18:05:34.415Z,59.72
2018-10-02T18:08:02.870Z,59.87
2018-10-02T18:11:34.669Z,59.92
2018-10-02T18:14:03.240Z,60.14
2018-10-02T18:16:32.201Z,59.95
2018-10-02T18:19:00.677Z,59.74
2018-10-02T18:21:29.739Z,60.37
2018-10-02T18:23:58.798Z,60.16
2018-10-02T18:26:27.362Z,60.20
2018-10-02T18:28:56.052Z,60.04
2018-10-02T18:31:24.505Z,60.30
2018-10-02T18:33:52.914Z,60.01
2018-10-02T18:36:21.496Z,60.03
2018-10-02T18:38:49.934Z,60.69
2018-10-02T18:41:18.788Z,60.41
2018-10-02T18:43:47.388Z,60.85
2018-10-02T18:46:15.797Z,60.48
2018-10-02T18:48:44.584Z,60.14
2018-10-02T18:51:12.932Z,60.59
2018-10-02T18:53:41.295Z,60.94
2018-10-02T18:56:10.110Z,60.99
2018-10-02T18:58:38.416Z,60.83
2018-10-02T19:01:07.027Z,61.40
2018-10-02T19:03:35.447Z,61.28
2018-10-02T19:06:04.449Z,61.75
2018-10-02T19:08:38.219Z,61.44
2018-10-02T19:11:11.961Z,61.74
2018-10-02T19:13:40.930Z,61.73
2018-10-02T19:16:30.144Z,62.42
2018-10-02T19:18:58.762Z,61.82
2018-10-02T19:21:27.752Z,62.16
2018-10-02T19:23:56.440Z,62.64
2018-10-02T19:26:26.854Z,62.91
2018-10-02T19:28:57.670Z,62.46
2018-10-02T19:31:31.481Z,62.41
2018-10-02T19:34:00.425Z,63.12
2018-10-02T19:36:28.954Z,62.95
2018-10-02T19:39:08.040Z,63.12
2018-10-02T19:41:37.176Z,63.21
2018-10-02T19:44:05.759Z,62.62
2018-10-02T19:46:40.469Z,62.98
2018-10-02T19:49:08.944Z,62.95
2018-10-02T19:51:42.779Z,63.21
2018-10-02T19:54:11.288Z,62.85
2018-10-02T19:56:39.922Z,76.31
2018-10-02T19:59:10.457Z,60.43
2018-10-02T20:01:39.475Z,60.49
2018-10-02T20:04:07.901Z,61.50
2018-10-02T20:06:36.343Z,61.76
2018-10-02T20:09:06.647Z,61.63
2018-10-02T20:11:35.249Z,62.41
2018-10-02T20:14:03.812Z,62.81
2018-10-02T20:16:32.419Z,62.95
2018-10-02T20:19:00.922Z,62.87
2018-10-02T20:21:29.451Z,63.47
2018-10-02T20:23:57.757Z,63.34
2018-10-02T20:26:26.307Z,63.23
2018-10-02T20:28:54.931Z,63.35
2018-10-02T20:31:23.879Z,63.68
2018-10-02T20:33:52.429Z,63.75
2018-10-02T20:36:20.810Z,64.58
2018-10-02T20:38:49.300Z,64.33
2018-10-02T20:41:17.633Z,65.10
2018-10-02T20:43:46.142Z,65.26
2018-10-02T20:46:14.629Z,65.29
2018-10-02T20:48:43.024Z,65.55
2018-10-02T20:51:11.463Z,65.68
2018-10-02T20:53:40.030Z,65.62
2018-10-02T20:56:08.386Z,66.02
2018-10-02T20:58:37.140Z,66.33
2018-10-02T21:01:05.592Z,66.17
2018-10-02T21:03:33.918Z,66.18
2018-10-02T21:06:02.473Z,65.98
2018-10-02T21:08:31.036Z,66.56
2018-10-02T21:10:59.450Z,66.64
2018-10-02T21:13:27.876Z,66.43
2018-10-02T21:15:56.350Z,67.37
2018-10-02T21:18:25.886Z,67.09
2018-10-02T21:20:54.628Z,66.97
2018-10-02T21:23:22.954Z,66.87
2018-10-02T21:25:51.934Z,67.01
2018-10-02T21:28:20.212Z,67.18
2018-10-02T21:30:48.609Z,67.85
2018-10-02T21:33:17.050Z,68.05
2018-10-02T21:35:45.406Z,68.29
2018-10-02T21:38:14.395Z,68.27
2018-10-02T21:40:42.958Z,68.97
2018-10-02T21:43:11.250Z,68.35
2018-10-02T21:45:39.630Z,68.74
2018-10-02T21:48:08.143Z,68.16
2018-10-02T21:50:36.780Z,69.04
2018-10-02T21:53:05.127Z,68.17
2018-10-02T21:55:33.443Z,68.67
2018-10-02T21:58:01.695Z,68.58
2018-10-02T22:00:31.526Z,69.24
2018-10-02T22:02:59.960Z,69.21
2018-10-02T22:05:28.341Z,68.79
2018-10-02T22:07:56.697Z,68.93
2018-10-02T22:10:25.020Z,68.62
2018-10-02T22:12:53.493Z,68.87
2018-10-02T22:15:21.840Z,68.48
2018-10-02T22:17:50.087Z,67.99
2018-10-02T22:20:18.362Z,68.68
2018-10-02T22:22:46.700Z,68.69
2018-10-02T22:25:15.215Z,68.77
2018-10-02T22:27:43.679Z,68.66
2018-10-02T22:30:13.974Z,69.51
2018-10-02T22:32:42.661Z,69.86
2018-10-02T22:35:11.001Z,72.01
2018-10-02T22:37:39.412Z,71.93
2018-10-02T22:40:08.354Z,74.50
2018-10-02T22:42:36.643Z,75.13
2018-10-02T22:45:05.101Z,78.04
2018-10-02T22:47:33.485Z,81.29
2018-10-02T22:50:02.707Z,83.42
2018-10-02T22:52:31.182Z,84.68
2018-10-02T22:55:00.602Z,85.09
2018-10-02T22:57:29.050Z,85.98
2018-10-02T22:59:57.459Z,86.61
2018-10-02T23:02:25.783Z,84.88
2018-10-02T23:04:54.288Z,84.87
2018-10-02T23:07:24.059Z,83.66
2018-10-02T23:09:52.766Z,82.50
2018-10-02T23:12:21.297Z,82.33
2018-10-02T23:14:49.746Z,80.87
2018-10-02T23:17:18.190Z,78.97
2018-10-02T23:19:46.508Z,79.18
2018-10-02T23:22:15.161Z,77.99
2018-10-02T23:24:43.971Z,77.43
2018-10-02T23:27:12.273Z,76.74
2018-10-02T23:29:40.620Z,76.69
2018-10-02T23:32:08.999Z,75.20
2018-10-02T23:34:37.834Z,75.93
2018-10-02T23:37:07.745Z,75.53
2018-10-02T23:39:36.003Z,75.25
2018-10-02T23:42:05.325Z,75.19
2018-10-02T23:44:37.928Z,76.40
2018-10-02T23:47:06.754Z,75.47
2018-10-02T23:49:35.252Z,76.30
2018-10-02T23:52:03.607Z,75.99
2018-10-02T23:54:32.518Z,75.82
2018-10-02T23:57:00.975Z,76.10
2018-10-02T23:59:31.336Z,75.38
